createdAt,value
2022-10-08T00:00:28.885Z,70.43
2022-10-08T00:01:51.985Z,70.61
2022-10-08T00:02:54.995Z,70.55
2022-10-08T00:03:58.561Z,70.58
2022-10-08T00:05:02.266Z,70.61
2022-10-08T00:06:15.051Z,70.72
2022-10-08T00:07:19.262Z,70.65
2022-10-08T00:08:22.158Z,70.58
2022-10-08T00:09:25.176Z,70.59
2022-10-08T00:10:28.163Z,70.62
2022-10-08T00:11:38.195Z,70.67
2022-10-08T00:12:45.215Z,70.71
2022-10-08T00:13:50.479Z,70.69
2022-10-08T00:14:54.140Z,70.66
2022-10-08T00:15:58.282Z,70.67
2022-10-08T00:17:01.322Z,70.79
2022-10-08T00:18:04.548Z,70.78
2022-10-08T00:19:11.714Z,70.80
2022-10-08T00:20:14.817Z,70.89
2022-10-08T00:21:24.163Z,70.85
2022-10-08T00:22:27.212Z,70.92
2022-10-08T00:23:30.250Z,70.95
2022-10-08T00:24:33.205Z,70.86
2022-10-08T00:25:44.107Z,70.90
2022-10-08T00:26:47.790Z,70.97
2022-10-08T00:27:51.243Z,70.96
2022-10-08T00:28:58.310Z,71.00
2022-10-08T00:30:01.393Z,71.13
2022-10-08T00:31:10.065Z,71.18
2022-10-08T00:32:13.223Z,71.31
2022-10-08T00:33:16.156Z,71.23
2022-10-08T00:34:23.256Z,71.15
2022-10-08T00:35:26.327Z,71.19
2022-10-08T00:36:34.482Z,71.26
2022-10-08T00:37:37.485Z,71.21
2022-10-08T00:38:40.806Z,71.26
2022-10-08T00:39:44.633Z,71.37
2022-10-08T00:40:47.702Z,71.55
2022-10-08T00:41:54.042Z,71.53
2022-10-08T00:43:00.420Z,71.55
2022-10-08T00:44:24.353Z,71.51
2022-10-08T00:45:27.538Z,71.62
2022-10-08T00:46:48.719Z,71.54
2022-10-08T00:47:54.084Z,71.81
2022-10-08T00:49:11.476Z,71.81
2022-10-08T00:50:16.794Z,71.95
2022-10-08T00:51:19.847Z,71.88
2022-10-08T00:52:25.157Z,71.89
2022-10-08T00:53:28.180Z,71.93
2022-10-08T00:54:32.723Z,71.93
2022-10-08T00:55:43.155Z,71.97
2022-10-08T00:56:52.529Z,72.00
2022-10-08T00:58:22.497Z,71.99
2022-10-08T00:59:26.383Z,72.32
2022-10-08T01:00:30.585Z,72.16
2022-10-08T01:01:34.780Z,72.18
2022-10-08T01:02:37.995Z,72.11
2022-10-08T01:03:40.992Z,72.12
2022-10-08T01:04:44.288Z,72.25
2022-10-08T01:06:10.045Z,72.28
2022-10-08T01:07:33.088Z,72.49
2022-10-08T01:09:01.033Z,72.55
2022-10-08T01:10:14.273Z,72.63
2022-10-08T01:11:28.854Z,72.67
2022-10-08T01:12:52.561Z,72.68
2022-10-08T01:14:14.216Z,72.67
2022-10-08T01:15:39.807Z,72.55
2022-10-08T01:16:55.833Z,72.58
2022-10-08T01:18:29.069Z,72.71
2022-10-08T01:19:48.477Z,72.90
2022-10-08T01:21:27.443Z,72.75
2022-10-08T01:22:51.632Z,73.03
2022-10-08T01:24:09.541Z,72.92
2022-10-08T01:25:33.857Z,72.91
2022-10-08T01:26:49.089Z,72.97
2022-10-08T01:28:00.997Z,72.79
2022-10-08T01:29:04.161Z,72.70
2022-10-08T01:30:12.998Z,72.56
2022-10-08T01:33:02.491Z,72.76
2022-10-08T01:34:13.103Z,72.50
2022-10-08T01:35:21.902Z,72.55
2022-10-08T01:36:27.549Z,72.83
2022-10-08T01:37:36.490Z,72.56
2022-10-08T01:38:43.275Z,72.54
2022-10-08T01:39:49.316Z,72.48
2022-10-08T01:40:58.916Z,72.44
2022-10-08T01:42:05.630Z,72.41
2022-10-08T01:43:12.959Z,72.38
2022-10-08T01:44:23.322Z,72.28
2022-10-08T01:45:28.499Z,72.37
2022-10-08T01:46:33.526Z,72.68
2022-10-08T01:47:40.946Z,72.73
2022-10-08T01:48:44.834Z,72.75
2022-10-08T01:49:55.911Z,72.71
2022-10-08T01:51:17.188Z,72.63
2022-10-08T01:52:37.093Z,72.93
2022-10-08T01:53:45.894Z,73.01
2022-10-08T01:54:52.178Z,72.99
2022-10-08T01:55:56.094Z,72.90
2022-10-08T01:57:02.309Z,72.91
2022-10-08T01:58:13.632Z,72.98
2022-10-08T01:59:42.199Z,73.07
2022-10-08T02:00:47.633Z,73.09
2022-10-08T02:02:01.160Z,73.02
2022-10-08T02:03:04.565Z,73.11
2022-10-08T02:04:26.245Z,72.95
2022-10-08T02:05:34.292Z,73.02
2022-10-08T02:06:42.586Z,72.92
2022-10-08T02:07:45.798Z,72.80
2022-10-08T02:08:49.802Z,72.77
2022-10-08T02:10:02.654Z,72.78
2022-10-08T02:11:06.089Z,72.86
2022-10-08T02:12:10.079Z,72.72
2022-10-08T02:13:13.484Z,72.68
2022-10-08T02:14:16.761Z,72.71
2022-10-08T02:15:46.168Z,72.74
2022-10-08T02:17:12.493Z,72.95
2022-10-08T02:18:19.122Z,72.91
2022-10-08T02:19:28.223Z,72.85
2022-10-08T02:20:37.746Z,72.77
2022-10-08T02:21:43.255Z,72.75
2022-10-08T02:23:01.187Z,72.74
2022-10-08T02:24:26.978Z,72.87
2022-10-08T02:25:44.786Z,72.89
2022-10-08T02:26:51.051Z,72.90
2022-10-08T02:28:10.719Z,72.73
2022-10-08T02:29:20.555Z,72.73
2022-10-08T02:30:24.750Z,72.56
2022-10-08T02:31:49.188Z,72.68
2022-10-08T02:33:00.432Z,72.91
2022-10-08T02:34:17.803Z,72.96
2022-10-08T02:35:27.049Z,72.89
2022-10-08T02:36:39.203Z,72.83
2022-10-08T02:37:47.574Z,72.75
2022-10-08T02:38:54.596Z,72.70
2022-10-08T02:40:05.245Z,72.83
2022-10-08T02:41:10.527Z,73.03
2022-10-08T02:42:19.217Z,73.14
2022-10-08T02:43:26.582Z,73.26
2022-10-08T02:44:35.178Z,73.26
2022-10-08T02:45:46.769Z,73.37
2022-10-08T02:46:54.164Z,73.50
2022-10-08T02:48:08.592Z,73.54
2022-10-08T02:49:33.802Z,73.75
2022-10-08T02:50:40.586Z,73.72
2022-10-08T02:51:49.396Z,73.65
2022-10-08T02:52:52.756Z,73.78
2022-10-08T02:53:56.501Z,73.37
2022-10-08T02:55:01.335Z,73.66
2022-10-08T02:56:13.769Z,73.34
2022-10-08T02:57:29.784Z,73.57
2022-10-08T02:58:33.015Z,73.59
2022-10-08T02:59:36.524Z,73.62
2022-10-08T03:00:49.283Z,73.57
2022-10-08T03:01:57.547Z,73.40
2022-10-08T03:03:15.075Z,73.72
2022-10-08T03:04:27.724Z,74.06
2022-10-08T03:05:30.996Z,74.07
2022-10-08T03:06:36.006Z,73.60
2022-10-08T03:07:39.005Z,73.60
2022-10-08T03:08:46.471Z,73.73
2022-10-08T03:09:52.951Z,74.02
2022-10-08T03:10:59.448Z,74.23
2022-10-08T03:12:02.928Z,74.24
2022-10-08T03:13:07.644Z,74.32
2022-10-08T03:14:14.044Z,74.40
2022-10-08T03:15:17.080Z,74.26
2022-10-08T03:16:23.870Z,74.12
2022-10-08T03:17:35.838Z,74.20
2022-10-08T03:18:40.024Z,74.13
2022-10-08T03:19:42.956Z,74.06
2022-10-08T03:20:50.803Z,73.95
2022-10-08T03:21:56.566Z,73.96
2022-10-08T03:23:01.796Z,73.96
2022-10-08T03:24:06.300Z,73.95
2022-10-08T03:25:09.492Z,73.92
2022-10-08T03:26:12.596Z,73.85
2022-10-08T03:27:15.740Z,73.80
2022-10-08T03:28:18.709Z,73.77
2022-10-08T03:29:21.688Z,73.75
2022-10-08T03:30:24.915Z,73.73
2022-10-08T03:31:27.962Z,73.68
2022-10-08T03:32:31.179Z,73.66
2022-10-08T03:33:34.576Z,73.68
2022-10-08T03:34:37.588Z,73.74
2022-10-08T03:35:47.596Z,73.64
2022-10-08T03:36:50.640Z,73.74
2022-10-08T03:37:54.103Z,73.73
2022-10-08T03:38:57.519Z,73.60
2022-10-08T03:40:00.559Z,73.64
2022-10-08T03:41:03.552Z,73.72
2022-10-08T03:42:06.438Z,73.78
2022-10-08T03:43:09.479Z,73.74
2022-10-08T03:44:12.530Z,73.79
2022-10-08T03:45:15.667Z,73.84
2022-10-08T03:46:19.452Z,73.91
2022-10-08T03:47:22.356Z,73.88
2022-10-08T03:48:25.467Z,73.90
2022-10-08T03:49:28.459Z,73.96
2022-10-08T03:50:31.554Z,74.00
2022-10-08T03:51:34.688Z,73.97
2022-10-08T03:52:37.886Z,73.95
2022-10-08T03:53:42.891Z,73.93
2022-10-08T03:54:45.830Z,73.93
2022-10-08T03:55:49.147Z,73.90
2022-10-08T03:56:52.224Z,73.79
2022-10-08T03:57:55.176Z,73.74
2022-10-08T03:58:59.940Z,73.72
2022-10-08T04:00:03.726Z,73.74
2022-10-08T04:01:11.866Z,73.71
2022-10-08T04:02:15.051Z,73.71
2022-10-08T04:03:17.998Z,73.63
2022-10-08T04:04:25.352Z,73.65
2022-10-08T04:05:28.859Z,73.67
2022-10-08T04:06:31.943Z,73.58
2022-10-08T04:07:35.022Z,73.55
2022-10-08T04:08:40.678Z,73.52
2022-10-08T04:09:46.519Z,73.44
2022-10-08T04:10:49.747Z,73.55
2022-10-08T04:11:52.769Z,73.61
2022-10-08T04:12:56.044Z,73.61
2022-10-08T04:14:01.098Z,73.62
2022-10-08T04:15:07.482Z,73.63
2022-10-08T04:16:15.838Z,73.65
2022-10-08T04:17:19.099Z,73.66
2022-10-08T04:18:23.688Z,73.66
2022-10-08T04:19:26.634Z,73.64
2022-10-08T04:20:37.416Z,73.57
2022-10-08T04:21:41.335Z,73.65
2022-10-08T04:22:44.852Z,73.59
2022-10-08T04:23:51.250Z,73.57
2022-10-08T04:24:54.636Z,73.56
2022-10-08T04:25:57.889Z,73.51
2022-10-08T04:27:01.038Z,73.51
2022-10-08T04:28:06.080Z,73.49
2022-10-08T04:29:12.629Z,73.47
2022-10-08T04:30:16.635Z,73.47
2022-10-08T04:31:23.210Z,73.38
2022-10-08T04:32:26.274Z,73.31
2022-10-08T04:33:31.279Z,73.27
2022-10-08T04:34:34.235Z,73.27
2022-10-08T04:35:38.253Z,73.24
2022-10-08T04:36:41.469Z,73.15
2022-10-08T04:37:44.414Z,73.14
2022-10-08T04:38:48.141Z,73.13
2022-10-08T04:39:51.158Z,73.12
2022-10-08T04:41:11.920Z,73.06
2022-10-08T04:42:15.346Z,73.17
2022-10-08T04:43:18.257Z,73.21
2022-10-08T04:44:21.256Z,73.21
2022-10-08T04:45:24.179Z,73.15
2022-10-08T04:46:27.728Z,73.16
2022-10-08T04:47:31.135Z,73.15
2022-10-08T04:48:34.300Z,73.11
2022-10-08T04:49:37.479Z,73.16
2022-10-08T04:50:40.607Z,73.23
2022-10-08T04:51:43.619Z,73.18
2022-10-08T04:52:46.888Z,73.09
2022-10-08T04:53:51.101Z,73.08
2022-10-08T04:54:54.021Z,73.16
2022-10-08T04:55:57.855Z,73.28
2022-10-08T04:57:00.812Z,73.33
2022-10-08T04:58:03.839Z,73.34
2022-10-08T04:59:06.731Z,73.31
2022-10-08T05:00:19.135Z,73.31
2022-10-08T05:01:23.830Z,73.36
2022-10-08T05:02:26.858Z,73.32
2022-10-08T05:03:30.057Z,73.18
2022-10-08T05:04:33.081Z,73.18
2022-10-08T05:05:44.331Z,73.19
2022-10-08T05:06:47.470Z,73.24
2022-10-08T05:07:50.803Z,73.23
2022-10-08T05:09:04.206Z,73.20
2022-10-08T05:10:08.987Z,73.26
2022-10-08T05:11:12.891Z,73.24
2022-10-08T05:12:15.936Z,73.24
2022-10-08T05:13:19.161Z,73.18
2022-10-08T05:14:22.320Z,73.17
2022-10-08T05:15:25.304Z,73.15
2022-10-08T05:16:28.273Z,73.13
2022-10-08T05:17:31.244Z,73.14
2022-10-08T05:18:35.383Z,73.17
2022-10-08T05:19:38.511Z,73.21
2022-10-08T05:20:41.507Z,73.13
2022-10-08T05:21:44.587Z,73.03
2022-10-08T05:22:48.009Z,73.03
2022-10-08T05:23:56.277Z,73.10
2022-10-08T05:24:59.338Z,73.11
2022-10-08T05:26:18.373Z,73.12
2022-10-08T05:27:21.662Z,73.23
2022-10-08T05:28:24.902Z,73.20
2022-10-08T05:29:30.779Z,73.26
2022-10-08T05:30:33.976Z,73.29
2022-10-08T05:31:38.395Z,73.28
2022-10-08T05:32:41.388Z,73.26
2022-10-08T05:33:45.075Z,73.25
2022-10-08T05:34:48.210Z,73.26
2022-10-08T05:35:51.442Z,73.40
2022-10-08T05:36:54.432Z,73.47
2022-10-08T05:37:57.634Z,73.20
2022-10-08T05:39:02.637Z,73.38
2022-10-08T05:40:05.937Z,73.54
2022-10-08T05:41:18.200Z,73.59
2022-10-08T05:42:21.219Z,73.51
2022-10-08T05:43:24.183Z,73.41
2022-10-08T05:44:27.152Z,73.35
2022-10-08T05:45:30.127Z,73.31
2022-10-08T05:46:35.259Z,73.24
2022-10-08T05:47:38.319Z,73.15
2022-10-08T05:48:42.060Z,73.06
2022-10-08T05:49:45.037Z,72.97
2022-10-08T05:50:48.044Z,72.87
2022-10-08T05:51:51.380Z,72.76
2022-10-08T05:52:54.348Z,72.67
2022-10-08T05:54:00.197Z,72.50
2022-10-08T05:55:03.463Z,72.40
2022-10-08T05:56:08.987Z,72.48
2022-10-08T05:57:12.009Z,72.52
2022-10-08T05:58:15.022Z,72.53
2022-10-08T05:59:21.655Z,72.61
2022-10-08T06:00:24.695Z,72.68
2022-10-08T06:01:30.830Z,72.82
2022-10-08T06:02:33.864Z,72.85
2022-10-08T06:03:36.870Z,72.87
2022-10-08T06:04:39.914Z,72.82
2022-10-08T06:05:43.032Z,72.53
2022-10-08T06:06:46.508Z,72.57
2022-10-08T06:07:49.671Z,72.34
2022-10-08T06:08:58.634Z,72.18
2022-10-08T06:10:01.732Z,72.21
2022-10-08T06:11:06.307Z,72.26
2022-10-08T06:12:10.164Z,72.44
2022-10-08T06:13:14.784Z,72.57
2022-10-08T06:14:20.326Z,72.34
2022-10-08T06:15:23.409Z,72.23
2022-10-08T06:16:27.691Z,72.28
2022-10-08T06:17:30.910Z,72.39
2022-10-08T06:18:37.341Z,72.35
2022-10-08T06:19:40.307Z,72.09
2022-10-08T06:20:43.328Z,71.62
2022-10-08T06:21:46.394Z,71.37
2022-10-08T06:22:49.729Z,71.23
2022-10-08T06:23:55.330Z,71.17
2022-10-08T06:24:58.423Z,70.99
2022-10-08T06:26:05.671Z,70.91
2022-10-08T06:27:08.791Z,71.01
2022-10-08T06:28:12.221Z,70.90
2022-10-08T06:29:17.758Z,70.75
2022-10-08T06:30:21.475Z,70.44
2022-10-08T06:31:26.572Z,70.28
2022-10-08T06:32:29.572Z,70.27
2022-10-08T06:33:32.823Z,70.25
2022-10-08T06:34:36.659Z,70.11
2022-10-08T06:35:39.756Z,70.06
2022-10-08T06:36:42.925Z,70.05
2022-10-08T06:37:48.841Z,69.73
2022-10-08T06:38:57.879Z,69.33
2022-10-08T06:40:01.127Z,69.36
2022-10-08T06:41:04.191Z,69.09
2022-10-08T06:42:07.276Z,69.13
2022-10-08T06:43:15.758Z,69.01
2022-10-08T06:44:19.278Z,68.98
2022-10-08T06:45:22.284Z,68.86
2022-10-08T06:46:25.387Z,68.79
2022-10-08T06:47:28.440Z,68.90
2022-10-08T06:48:31.831Z,68.80
2022-10-08T06:49:35.136Z,68.87
2022-10-08T06:50:39.264Z,68.50
2022-10-08T06:51:42.316Z,68.31
2022-10-08T06:52:46.138Z,68.46
2022-10-08T06:53:54.935Z,68.58
2022-10-08T06:54:58.451Z,68.40
2022-10-08T06:56:05.244Z,68.32
2022-10-08T06:57:08.305Z,68.10
2022-10-08T06:58:11.195Z,67.95
2022-10-08T06:59:14.172Z,67.45
2022-10-08T07:00:17.553Z,67.36
2022-10-08T07:01:31.846Z,67.32
2022-10-08T07:02:36.342Z,67.51
2022-10-08T07:03:39.653Z,67.39
2022-10-08T07:04:42.550Z,67.34
2022-10-08T07:05:45.514Z,66.72
2022-10-08T07:06:49.266Z,66.69
2022-10-08T07:07:52.649Z,66.82
2022-10-08T07:09:01.244Z,66.75
2022-10-08T07:10:05.638Z,66.90
2022-10-08T07:11:17.065Z,66.47
2022-10-08T07:12:20.289Z,66.48
2022-10-08T07:13:23.404Z,66.35
2022-10-08T07:14:26.358Z,66.31
2022-10-08T07:15:31.269Z,66.28
2022-10-08T07:16:34.429Z,66.26
2022-10-08T07:17:37.701Z,66.30
2022-10-08T07:18:41.407Z,66.04
2022-10-08T07:19:44.383Z,65.80
2022-10-08T07:20:55.859Z,65.88
2022-10-08T07:22:01.319Z,66.03
2022-10-08T07:23:04.753Z,65.93
2022-10-08T07:24:07.840Z,65.90
2022-10-08T07:25:10.986Z,65.94
2022-10-08T07:26:19.171Z,65.74
2022-10-08T07:27:22.168Z,65.63
2022-10-08T07:28:27.614Z,65.24
2022-10-08T07:29:30.748Z,65.00
2022-10-08T07:30:36.396Z,64.12
2022-10-08T07:31:39.666Z,64.33
2022-10-08T07:32:42.656Z,64.20
2022-10-08T07:33:45.689Z,63.72
2022-10-08T07:34:48.729Z,63.94
2022-10-08T07:35:51.711Z,64.03
2022-10-08T07:36:54.765Z,64.08
2022-10-08T07:37:58.000Z,64.51
2022-10-08T07:39:03.886Z,64.39
2022-10-08T07:40:07.264Z,64.67
2022-10-08T07:41:11.669Z,64.88
2022-10-08T07:42:17.075Z,64.93
2022-10-08T07:43:20.083Z,65.20
2022-10-08T07:44:23.248Z,65.08
2022-10-08T07:45:26.224Z,65.02
2022-10-08T07:46:31.305Z,64.98
2022-10-08T07:47:34.790Z,65.07
2022-10-08T07:48:38.907Z,65.21
2022-10-08T07:49:41.967Z,64.97
2022-10-08T07:50:44.953Z,64.64
2022-10-08T07:51:48.166Z,64.50
2022-10-08T07:52:51.292Z,64.48
2022-10-08T07:53:57.677Z,64.69
2022-10-08T07:55:03.939Z,64.30
2022-10-08T07:56:09.136Z,63.99
2022-10-08T07:57:12.107Z,64.08
2022-10-08T07:58:15.147Z,62.53
2022-10-08T07:59:18.070Z,61.75
2022-10-08T08:00:25.897Z,61.90
2022-10-08T08:01:30.454Z,61.66
2022-10-08T08:02:33.764Z,62.02
2022-10-08T08:03:36.784Z,62.24
2022-10-08T08:04:39.958Z,62.36
2022-10-08T08:05:43.041Z,61.57
2022-10-08T08:06:52.404Z,61.05
2022-10-08T08:07:55.402Z,60.78
2022-10-08T08:09:00.376Z,60.68
2022-10-08T08:10:04.043Z,59.72
2022-10-08T08:11:09.287Z,59.80
2022-10-08T08:12:12.511Z,59.51
2022-10-08T08:13:15.807Z,58.94
2022-10-08T08:14:19.824Z,59.14
2022-10-08T08:15:22.985Z,60.10
2022-10-08T08:16:27.904Z,60.17
2022-10-08T08:17:31.413Z,60.87
2022-10-08T08:18:37.222Z,60.95
2022-10-08T08:19:40.330Z,60.82
2022-10-08T08:20:43.377Z,61.26
2022-10-08T08:21:46.826Z,60.98
2022-10-08T08:22:50.555Z,61.74
2022-10-08T08:23:55.846Z,61.46
2022-10-08T08:24:58.892Z,62.06
2022-10-08T08:26:03.796Z,62.40
2022-10-08T08:27:06.938Z,62.31
2022-10-08T08:28:10.061Z,62.52
2022-10-08T08:29:18.555Z,61.59
2022-10-08T08:30:21.996Z,61.49
2022-10-08T08:31:30.824Z,60.86
2022-10-08T08:32:34.235Z,60.72
2022-10-08T08:33:37.473Z,60.28
2022-10-08T08:34:40.956Z,59.44
2022-10-08T08:35:53.532Z,59.05
2022-10-08T08:36:59.230Z,59.45
2022-10-08T08:38:02.329Z,58.98
2022-10-08T08:39:07.721Z,58.17
2022-10-08T08:40:11.118Z,58.33
2022-10-08T08:41:37.752Z,59.19
2022-10-08T08:42:52.227Z,58.66
2022-10-08T08:44:08.657Z,58.86
2022-10-08T08:45:45.815Z,58.91
2022-10-08T08:47:05.160Z,58.73
2022-10-08T08:48:24.886Z,59.39
2022-10-08T08:49:34.881Z,58.58
2022-10-08T08:50:45.503Z,58.26
2022-10-08T08:51:52.636Z,58.54
2022-10-08T08:52:56.129Z,58.21
2022-10-08T08:53:59.945Z,58.00
2022-10-08T08:55:17.157Z,58.35
2022-10-08T08:56:22.566Z,58.41
2022-10-08T08:57:41.665Z,58.86
2022-10-08T08:59:00.184Z,58.51
2022-10-08T09:00:11.416Z,58.29
2022-10-08T09:01:20.276Z,58.82
2022-10-08T09:02:28.692Z,58.78
2022-10-08T09:03:41.189Z,58.51
2022-10-08T09:04:50.616Z,58.83
2022-10-08T09:05:58.371Z,59.50
2022-10-08T09:07:05.827Z,59.10
2022-10-08T09:08:18.059Z,59.90
2022-10-08T09:09:42.849Z,59.86
2022-10-08T09:10:52.669Z,59.65
2022-10-08T09:11:56.030Z,59.36
2022-10-08T09:13:01.683Z,59.74
2022-10-08T09:14:37.023Z,59.74
2022-10-08T09:15:40.625Z,58.67
2022-10-08T09:16:43.734Z,58.98
2022-10-08T09:17:51.794Z,59.06
2022-10-08T09:18:54.866Z,58.96
2022-10-08T09:19:58.721Z,59.19
2022-10-08T09:21:02.147Z,59.10
2022-10-08T09:22:20.830Z,58.60
2022-10-08T09:23:26.486Z,58.21
2022-10-08T09:24:29.827Z,59.00
2022-10-08T09:25:34.053Z,58.32
2022-10-08T09:26:37.024Z,58.21
2022-10-08T09:27:48.095Z,58.55
2022-10-08T09:28:56.955Z,58.77
2022-10-08T09:30:00.044Z,58.93
2022-10-08T09:31:31.108Z,58.58
2022-10-08T09:32:34.183Z,58.44
2022-10-08T09:33:39.960Z,59.04
2022-10-08T09:34:43.885Z,59.12
2022-10-08T09:35:51.840Z,58.88
2022-10-08T09:37:04.911Z,58.99
2022-10-08T09:38:19.985Z,59.28
2022-10-08T09:39:24.500Z,59.41
2022-10-08T09:40:28.531Z,59.12
2022-10-08T09:41:31.786Z,59.25
2022-10-08T09:42:34.732Z,59.39
2022-10-08T09:43:37.658Z,59.37
2022-10-08T09:44:46.299Z,59.20
2022-10-08T09:45:49.802Z,59.07
2022-10-08T09:47:05.684Z,59.01
2022-10-08T09:48:29.705Z,58.70
2022-10-08T09:49:38.488Z,57.60
2022-10-08T09:50:53.267Z,58.21
2022-10-08T09:51:59.478Z,57.49
2022-10-08T09:53:02.627Z,57.79
2022-10-08T09:54:06.175Z,57.00
2022-10-08T09:55:17.788Z,56.70
2022-10-08T09:56:28.150Z,56.24
2022-10-08T09:57:33.852Z,57.16
2022-10-08T09:58:49.264Z,56.27
2022-10-08T10:00:02.844Z,56.81
2022-10-08T10:01:15.810Z,56.70
2022-10-08T10:02:36.890Z,56.53
2022-10-08T10:03:47.622Z,56.86
2022-10-08T10:04:55.351Z,56.19
2022-10-08T10:06:02.103Z,55.55
2022-10-08T10:07:05.694Z,56.20
2022-10-08T10:08:43.341Z,55.87
2022-10-08T10:09:58.708Z,55.59
2022-10-08T10:11:02.149Z,55.12
2022-10-08T10:12:25.154Z,55.72
2022-10-08T10:13:35.469Z,55.77
2022-10-08T10:14:44.157Z,55.16
2022-10-08T10:15:53.173Z,55.42
2022-10-08T10:17:02.673Z,55.29
2022-10-08T10:18:14.070Z,55.22
2022-10-08T10:19:22.643Z,54.83
2022-10-08T10:20:36.369Z,54.85
2022-10-08T10:21:53.545Z,53.65
2022-10-08T10:23:02.892Z,54.10
2022-10-08T10:24:43.270Z,53.15
2022-10-08T10:26:06.338Z,53.94
2022-10-08T10:27:16.450Z,54.30
2022-10-08T10:28:43.134Z,53.70
2022-10-08T10:30:05.331Z,54.04
2022-10-08T10:31:32.169Z,53.19
2022-10-08T10:32:44.883Z,53.92
2022-10-08T10:34:02.834Z,53.34
2022-10-08T10:35:17.382Z,52.92
2022-10-08T10:36:22.297Z,53.11
2022-10-08T10:37:34.430Z,53.62
2022-10-08T10:38:50.304Z,53.44
2022-10-08T10:40:16.472Z,53.66
2022-10-08T10:41:28.582Z,53.48
2022-10-08T10:42:51.091Z,53.99
2022-10-08T10:44:00.790Z,53.58
2022-10-08T10:45:18.369Z,53.63
2022-10-08T10:46:44.638Z,53.73
2022-10-08T10:47:50.439Z,54.08
2022-10-08T10:48:53.619Z,53.95
2022-10-08T10:49:58.644Z,53.90
2022-10-08T10:51:19.669Z,53.52
2022-10-08T10:53:00.506Z,53.52
2022-10-08T10:54:25.224Z,53.81
2022-10-08T10:55:54.706Z,53.91
2022-10-08T10:57:05.059Z,54.45
2022-10-08T10:58:21.924Z,54.44
2022-10-08T10:59:46.609Z,54.30
2022-10-08T11:01:08.442Z,54.19
2022-10-08T11:02:21.246Z,54.41
2022-10-08T11:03:45.968Z,54.46
2022-10-08T11:05:14.848Z,54.21
2022-10-08T11:06:49.706Z,54.53
2022-10-08T11:08:14.619Z,54.74
2022-10-08T11:09:49.397Z,54.05
2022-10-08T11:10:55.404Z,54.42
2022-10-08T11:12:10.016Z,54.06
2022-10-08T11:13:30.844Z,53.88
2022-10-08T11:14:37.130Z,53.55
2022-10-08T11:15:49.720Z,53.54
2022-10-08T11:17:13.035Z,52.93
2022-10-08T11:18:16.215Z,53.03
2022-10-08T11:19:37.164Z,53.33
2022-10-08T11:20:40.275Z,52.73
2022-10-08T11:22:07.946Z,52.48
2022-10-08T11:23:39.136Z,53.08
2022-10-08T11:24:48.496Z,52.83
2022-10-08T11:26:20.491Z,52.23
2022-10-08T11:27:48.053Z,52.33
2022-10-08T11:29:17.161Z,52.17
2022-10-08T11:30:37.436Z,52.11
2022-10-08T11:31:43.535Z,52.04
2022-10-08T11:32:53.778Z,51.69
2022-10-08T11:33:57.568Z,51.44
2022-10-08T11:35:13.156Z,51.89
2022-10-08T11:36:32.801Z,51.12
2022-10-08T11:37:56.687Z,51.59
2022-10-08T11:39:26.701Z,50.99
2022-10-08T11:40:53.592Z,51.29
2022-10-08T11:42:00.958Z,51.60
2022-10-08T11:43:22.747Z,51.92
2022-10-08T11:44:26.927Z,51.81
2022-10-08T11:45:36.630Z,52.05
2022-10-08T11:46:41.102Z,51.82
2022-10-08T11:47:44.250Z,51.79
2022-10-08T11:48:47.546Z,52.01
2022-10-08T11:49:55.318Z,51.71
2022-10-08T11:51:20.088Z,51.62
2022-10-08T11:52:34.045Z,51.14
2022-10-08T11:53:43.576Z,50.77
2022-10-08T11:55:02.163Z,51.35
2022-10-08T11:56:19.899Z,51.36
2022-10-08T11:58:06.194Z,51.37
2022-10-08T11:59:25.746Z,51.32
2022-10-08T12:00:39.637Z,51.36
2022-10-08T12:02:02.153Z,51.39
2022-10-08T12:03:47.230Z,51.47
2022-10-08T12:04:52.820Z,51.72
2022-10-08T12:05:59.973Z,51.72
2022-10-08T12:07:27.923Z,51.91
2022-10-08T12:08:53.235Z,51.97
2022-10-08T12:10:05.649Z,52.20
2022-10-08T12:11:39.659Z,51.80
2022-10-08T12:12:51.767Z,51.78
2022-10-08T12:14:13.434Z,52.12
2022-10-08T12:15:22.890Z,52.43
2022-10-08T12:16:48.928Z,52.06
2022-10-08T12:17:57.616Z,51.94
2022-10-08T12:19:00.788Z,52.09
2022-10-08T12:20:20.722Z,51.58
2022-10-08T12:21:27.025Z,51.80
2022-10-08T12:22:29.953Z,51.79
2022-10-08T12:23:35.527Z,50.99
2022-10-08T12:24:38.584Z,51.21
2022-10-08T12:25:44.439Z,51.57
2022-10-08T12:27:20.939Z,51.63
2022-10-08T12:28:24.094Z,51.93
2022-10-08T12:29:48.053Z,51.72
2022-10-08T12:31:02.256Z,51.40
2022-10-08T12:32:05.547Z,51.74
2022-10-08T12:33:09.355Z,51.99
2022-10-08T12:34:20.147Z,51.99
2022-10-08T12:35:38.367Z,52.12
2022-10-08T12:36:48.495Z,52.24
2022-10-08T12:38:03.688Z,51.59
2022-10-08T12:39:31.723Z,51.63
2022-10-08T12:40:41.441Z,51.22
2022-10-08T12:41:59.851Z,51.02
2022-10-08T12:43:34.328Z,51.05
2022-10-08T12:44:59.773Z,50.82
2022-10-08T12:46:14.121Z,51.08
2022-10-08T12:47:40.620Z,51.15
2022-10-08T12:48:53.819Z,50.46
2022-10-08T12:50:05.207Z,50.43
2022-10-08T12:51:45.582Z,49.89
2022-10-08T12:52:48.797Z,49.82
2022-10-08T12:53:52.254Z,49.42
2022-10-08T12:54:57.800Z,49.60
2022-10-08T12:56:01.972Z,49.17
2022-10-08T12:57:11.695Z,49.19
2022-10-08T12:58:29.244Z,49.34
2022-10-08T12:59:32.738Z,48.95
2022-10-08T13:00:36.416Z,48.94
2022-10-08T13:01:42.707Z,49.23
2022-10-08T13:03:15.004Z,49.71
2022-10-08T13:04:27.305Z,49.62
2022-10-08T13:05:33.742Z,50.13
2022-10-08T13:06:36.933Z,50.37
2022-10-08T13:07:40.035Z,50.56
2022-10-08T13:08:43.392Z,50.66
2022-10-08T13:09:46.369Z,50.50
2022-10-08T13:10:49.643Z,50.41
2022-10-08T13:11:58.254Z,50.73
2022-10-08T13:13:07.435Z,50.60
2022-10-08T13:14:42.655Z,50.23
2022-10-08T13:15:45.815Z,50.39
2022-10-08T13:16:48.983Z,50.45
2022-10-08T13:17:53.582Z,50.48
2022-10-08T13:18:58.807Z,50.68
2022-10-08T13:20:18.875Z,50.88
2022-10-08T13:21:32.250Z,50.41
2022-10-08T13:22:35.416Z,50.94
2022-10-08T13:23:41.034Z,51.13
2022-10-08T13:24:44.548Z,51.24
2022-10-08T13:25:47.555Z,51.12
2022-10-08T13:26:55.867Z,50.68
2022-10-08T13:28:08.471Z,50.16
2022-10-08T13:29:23.885Z,49.37
2022-10-08T13:30:28.898Z,49.08
2022-10-08T13:31:35.017Z,48.63
2022-10-08T13:32:39.662Z,46.82
2022-10-08T13:33:43.362Z,45.72
2022-10-08T13:34:58.444Z,44.79
2022-10-08T13:36:02.717Z,45.06
2022-10-08T13:37:37.754Z,44.72
2022-10-08T13:38:41.769Z,45.23
2022-10-08T13:39:52.504Z,44.23
2022-10-08T13:40:59.075Z,42.51
2022-10-08T13:42:07.275Z,41.77
2022-10-08T13:43:11.909Z,40.78
2022-10-08T13:44:15.009Z,40.39
2022-10-08T13:45:23.676Z,39.41
2022-10-08T13:46:27.980Z,40.40
2022-10-08T13:47:31.293Z,40.44
2022-10-08T13:48:34.360Z,39.84
2022-10-08T13:49:37.366Z,39.84
2022-10-08T13:50:50.197Z,39.36
2022-10-08T13:51:54.370Z,39.34
2022-10-08T13:53:00.795Z,39.18
2022-10-08T13:54:03.819Z,38.63
2022-10-08T13:55:16.179Z,38.33
2022-10-08T13:56:21.246Z,37.19
2022-10-08T13:57:24.313Z,36.63
2022-10-08T13:58:27.563Z,37.69
2022-10-08T13:59:31.127Z,36.96
2022-10-08T14:00:36.747Z,37.23
2022-10-08T14:01:40.045Z,37.38
2022-10-08T14:02:43.027Z,37.95
2022-10-08T14:03:46.211Z,37.73
2022-10-08T14:04:49.470Z,37.62
2022-10-08T14:05:52.727Z,37.71
2022-10-08T14:06:58.146Z,37.63
2022-10-08T14:08:07.356Z,38.60
2022-10-08T14:09:16.936Z,38.58
2022-10-08T14:10:20.179Z,38.80
2022-10-08T14:11:23.493Z,39.51
2022-10-08T14:12:30.821Z,39.24
2022-10-08T14:13:33.851Z,39.41
2022-10-08T14:14:37.071Z,39.98
2022-10-08T14:15:40.189Z,40.50
2022-10-08T14:16:43.401Z,41.07
2022-10-08T14:17:46.923Z,41.45
2022-10-08T14:18:50.188Z,41.90
2022-10-08T14:19:55.446Z,42.50
2022-10-08T14:20:58.590Z,42.90
2022-10-08T14:22:01.668Z,43.30
2022-10-08T14:23:05.104Z,43.93
2022-10-08T14:24:08.254Z,44.22
2022-10-08T14:25:17.014Z,44.83
2022-10-08T14:26:20.249Z,45.07
2022-10-08T14:27:24.380Z,45.59
2022-10-08T14:28:27.729Z,46.34
2022-10-08T14:29:32.789Z,46.78
2022-10-08T14:30:36.358Z,46.91
2022-10-08T14:31:39.377Z,47.44
2022-10-08T14:32:43.418Z,47.67
2022-10-08T14:33:46.770Z,48.02
2022-10-08T14:34:49.747Z,48.31
2022-10-08T14:35:53.717Z,48.46
2022-10-08T14:36:57.978Z,49.04
2022-10-08T14:38:01.146Z,49.64
2022-10-08T14:39:05.602Z,49.68
2022-10-08T14:40:15.108Z,49.70
2022-10-08T14:41:19.950Z,50.24
2022-10-08T14:42:23.130Z,50.11
2022-10-08T14:43:27.814Z,50.49